sensor_id;sensor_type;location;lat;lon;timestamp;temperature;humidity
32965;DHT22;19317;48.226;11.686;2023-04-01T00:01:03;8.40;99.90
32965;DHT22;19317;48.226;11.686;2023-04-01T00:05:55;8.30;99.90
32965;DHT22;19317;48.226;11.686;2023-04-01T00:10:45;8.20;99.90
32965;DHT22;19317;48.226;11.686;2023-04-01T00:15:36;8.20;99.90
32965;DHT22;19317;48.226;11.686;2023-04-01T00:20:28;8.20;99.90
32965;DHT22;19317;48.226;11.686;2023-04-01T00:25:18;8.10;99.90
32965;DHT22;19317;48.226;11.686;2023-04-01T00:30:09;8.10;99.90
32965;DHT22;19317;48.226;11.686;2023-04-01T00:35:00;8.10;99.90
32965;DHT22;19317;48.226;11.686;2023-04-01T00:39:50;8.10;99.90
32965;DHT22;19317;48.226;11.686;2023-04-01T00:44:41;8.00;99.90
32965;DHT22;19317;48.226;11.686;2023-04-01T00:49:36;8.00;99.90
32965;DHT22;19317;48.226;11.686;2023-04-01T00:54:29;8.00;99.90
32965;DHT22;19317;48.226;11.686;2023-04-01T00:59:24;8.00;99.90
32965;DHT22;19317;48.226;11.686;2023-04-01T01:14:52;7.90;99.90
32965;DHT22;19317;48.226;11.686;2023-04-01T01:20:14;7.90;99.90
32965;DHT22;19317;48.226;11.686;2023-04-01T01:30:42;8.00;99.90
32965;DHT22;19317;48.226;11.686;2023-04-01T01:35:35;8.00;99.90
32965;DHT22;19317;48.226;11.686;2023-04-01T01:40:28;8.00;99.90
32965;DHT22;19317;48.226;11.686;2023-04-01T01:45:23;8.00;99.90
32965;DHT22;19317;48.226;11.686;2023-04-01T01:50:15;7.90;99.90
32965;DHT22;19317;48.226;11.686;2023-04-01T01:55:26;8.00;99.90
32965;DHT22;19317;48.226;11.686;2023-04-01T02:00:17;7.90;99.90
32965;DHT22;19317;48.226;11.686;2023-04-01T02:05:10;8.00;99.90
32965;DHT22;19317;48.226;11.686;2023-04-01T02:10:02;8.00;99.90
32965;DHT22;19317;48.226;11.686;2023-04-01T02:20:02;8.00;99.90
32965;DHT22;19317;48.226;11.686;2023-04-01T02:24:57;8.00;99.90
32965;DHT22;19317;48.226;11.686;2023-04-01T02:29:48;8.00;99.90
32965;DHT22;19317;48.226;11.686;2023-04-01T02:34:38;8.10;99.90
32965;DHT22;19317;48.226;11.686;2023-04-01T02:39:30;8.00;99.90
32965;DHT22;19317;48.226;11.686;2023-04-01T02:44:21;8.00;99.90
32965;DHT22;19317;48.226;11.686;2023-04-01T02:49:11;8.00;99.90
32965;DHT22;19317;48.226;11.686;2023-04-01T02:54:02;8.00;99.90
32965;DHT22;19317;48.226;11.686;2023-04-01T02:58:54;8.00;99.90
32965;DHT22;19317;48.226;11.686;2023-04-01T03:03:45;8.00;99.90
32965;DHT22;19317;48.226;11.686;2023-04-01T03:08:35;8.00;99.90
32965;DHT22;19317;48.226;11.686;2023-04-01T03:13:26;8.00;99.90
32965;DHT22;19317;48.226;11.686;2023-04-01T03:18:16;8.00;99.90
32965;DHT22;19317;48.226;11.686;2023-04-01T03:23:07;8.00;99.90
32965;DHT22;19317;48.226;11.686;2023-04-01T03:27:58;8.00;99.90
32965;DHT22;19317;48.226;11.686;2023-04-01T03:32:48;7.90;99.90
32965;DHT22;19317;48.226;11.686;2023-04-01T03:37:39;7.90;99.90
32965;DHT22;19317;48.226;11.686;2023-04-01T03:42:30;7.80;99.90
32965;DHT22;19317;48.226;11.686;2023-04-01T03:47:20;7.80;99.90
32965;DHT22;19317;48.226;11.686;2023-04-01T03:52:11;7.70;99.90
32965;DHT22;19317;48.226;11.686;2023-04-01T03:57:01;7.70;99.90
32965;DHT22;19317;48.226;11.686;2023-04-01T04:01:52;7.60;99.90
32965;DHT22;19317;48.226;11.686;2023-04-01T04:06:42;7.60;99.90
32965;DHT22;19317;48.226;11.686;2023-04-01T04:11:33;7.60;99.90
32965;DHT22;19317;48.226;11.686;2023-04-01T04:16:23;7.60;99.90
32965;DHT22;19317;48.226;11.686;2023-04-01T04:21:14;7.50;99.90
32965;DHT22;19317;48.226;11.686;2023-04-01T04:26:07;7.50;99.90
32965;DHT22;19317;48.226;11.686;2023-04-01T04:30:58;7.50;99.90
32965;DHT22;19317;48.226;11.686;2023-04-01T04:35:49;7.50;99.90
32965;DHT22;19317;48.226;11.686;2023-04-01T04:40:41;7.50;99.90
32965;DHT22;19317;48.226;11.686;2023-04-01T04:45:32;7.50;99.90
32965;DHT22;19317;48.226;11.686;2023-04-01T04:50:23;7.50;99.90
32965;DHT22;19317;48.226;11.686;2023-04-01T04:55:14;7.50;99.90
32965;DHT22;19317;48.226;11.686;2023-04-01T05:00:05;7.60;99.90
32965;DHT22;19317;48.226;11.686;2023-04-01T05:04:56;7.60;99.90
32965;DHT22;19317;48.226;11.686;2023-04-01T05:09:46;7.70;99.90
32965;DHT22;19317;48.226;11.686;2023-04-01T05:14:37;7.70;99.90
32965;DHT22;19317;48.226;11.686;2023-04-01T05:19:27;7.80;99.90
32965;DHT22;19317;48.226;11.686;2023-04-01T05:24:18;7.80;99.90
32965;DHT22;19317;48.226;11.686;2023-04-01T05:29:08;7.90;99.90
32965;DHT22;19317;48.226;11.686;2023-04-01T05:33:58;7.90;99.90
32965;DHT22;19317;48.226;11.686;2023-04-01T05:38:49;8.00;99.90
32965;DHT22;19317;48.226;11.686;2023-04-01T05:43:40;8.00;99.90
32965;DHT22;19317;48.226;11.686;2023-04-01T05:48:33;8.00;99.90
32965;DHT22;19317;48.226;11.686;2023-04-01T05:53:23;8.10;99.90
32965;DHT22;19317;48.226;11.686;2023-04-01T05:58:14;8.10;99.90
32965;DHT22;19317;48.226;11.686;2023-04-01T06:03:04;8.10;99.90
32965;DHT22;19317;48.226;11.686;2023-04-01T06:07:59;8.20;99.90
32965;DHT22;19317;48.226;11.686;2023-04-01T06:13:35;8.30;99.90
32965;DHT22;19317;48.226;11.686;2023-04-01T06:18:49;8.30;99.90
32965;DHT22;19317;48.226;11.686;2023-04-01T06:23:56;8.30;99.90
32965;DHT22;19317;48.226;11.686;2023-04-01T06:34:12;8.40;99.90
32965;DHT22;19317;48.226;11.686;2023-04-01T06:39:25;8.50;99.90
32965;DHT22;19317;48.226;11.686;2023-04-01T06:54:35;8.70;99.90
32965;DHT22;19317;48.226;11.686;2023-04-01T06:59:28;8.90;99.90
32965;DHT22;19317;48.226;11.686;2023-04-01T07:04:34;8.90;99.90
32965;DHT22;19317;48.226;11.686;2023-04-01T07:09:39;8.90;99.90
32965;DHT22;19317;48.226;11.686;2023-04-01T07:14:36;9.00;99.90
32965;DHT22;19317;48.226;11.686;2023-04-01T07:19:48;9.00;99.90
32965;DHT22;19317;48.226;11.686;2023-04-01T07:24:43;9.10;99.90
32965;DHT22;19317;48.226;11.686;2023-04-01T07:29:34;9.00;99.90
32965;DHT22;19317;48.226;11.686;2023-04-01T07:34:33;9.10;99.90
32965;DHT22;19317;48.226;11.686;2023-04-01T07:44:37;9.20;99.90
32965;DHT22;19317;48.226;11.686;2023-04-01T07:49:33;9.30;99.90
32965;DHT22;19317;48.226;11.686;2023-04-01T07:54:34;9.20;99.90
32965;DHT22;19317;48.226;11.686;2023-04-01T07:59:43;9.30;99.90
32965;DHT22;19317;48.226;11.686;2023-04-01T08:04:49;9.30;99.90
32965;DHT22;19317;48.226;11.686;2023-04-01T08:10:12;9.40;99.90
32965;DHT22;19317;48.226;11.686;2023-04-01T08:15:11;9.50;99.90
32965;DHT22;19317;48.226;11.686;2023-04-01T08:25:24;9.50;99.90
32965;DHT22;19317;48.226;11.686;2023-04-01T08:30:19;9.60;99.90
32965;DHT22;19317;48.226;11.686;2023-04-01T08:35:18;9.70;99.90
32965;DHT22;19317;48.226;11.686;2023-04-01T08:40:39;9.80;99.90
32965;DHT22;19317;48.226;11.686;2023-04-01T08:50:58;10.20;99.90
32965;DHT22;19317;48.226;11.686;2023-04-01T08:56:18;10.30;99.90
32965;DHT22;19317;48.226;11.686;2023-04-01T09:01:19;10.30;99.90
32965;DHT22;19317;48.226;11.686;2023-04-01T09:11:56;10.40;99.90
32965;DHT22;19317;48.226;11.686;2023-04-01T09:17:25;10.50;99.90
32965;DHT22;19317;48.226;11.686;2023-04-01T09:27:53;11.00;99.90
32965;DHT22;19317;48.226;11.686;2023-04-01T09:38:38;10.80;99.90
32965;DHT22;19317;48.226;11.686;2023-04-01T09:59:49;11.00;99.90
32965;DHT22;19317;48.226;11.686;2023-04-01T10:10:19;11.20;99.90
32965;DHT22;19317;48.226;11.686;2023-04-01T10:56:59;11.20;99.90
32965;DHT22;19317;48.226;11.686;2023-04-01T11:18:12;10.50;99.90
32965;DHT22;19317;48.226;11.686;2023-04-01T11:23:40;10.20;99.90
32965;DHT22;19317;48.226;11.686;2023-04-01T11:33:44;10.50;99.90
32965;DHT22;19317;48.226;11.686;2023-04-01T11:38:57;10.30;99.90
32965;DHT22;19317;48.226;11.686;2023-04-01T11:44:20;10.30;99.90
32965;DHT22;19317;48.226;11.686;2023-04-01T11:49:42;10.40;99.90
32965;DHT22;19317;48.226;11.686;2023-04-01T11:54:53;10.10;99.90
32965;DHT22;19317;48.226;11.686;2023-04-01T12:10:57;9.00;99.90
32965;DHT22;19317;48.226;11.686;2023-04-01T12:16:46;8.70;99.90
32965;DHT22;19317;48.226;11.686;2023-04-01T12:36:30;8.70;99.90
32965;DHT22;19317;48.226;11.686;2023-04-01T12:52:14;8.60;99.90
32965;DHT22;19317;48.226;11.686;2023-04-01T12:57:46;8.60;99.90
32965;DHT22;19317;48.226;11.686;2023-04-01T13:18:05;8.40;99.90
32965;DHT22;19317;48.226;11.686;2023-04-01T13:23:24;8.50;99.90
32965;DHT22;19317;48.226;11.686;2023-04-01T13:33:21;8.50;99.90
32965;DHT22;19317;48.226;11.686;2023-04-01T13:43:43;8.70;99.90
32965;DHT22;19317;48.226;11.686;2023-04-01T14:09:00;8.70;99.90
32965;DHT22;19317;48.226;11.686;2023-04-01T14:19:46;8.70;99.90
32965;DHT22;19317;48.226;11.686;2023-04-01T14:30:34;8.90;99.90
32965;DHT22;19317;48.226;11.686;2023-04-01T14:35:46;9.00;99.90
32965;DHT22;19317;48.226;11.686;2023-04-01T14:46:33;9.20;99.90
32965;DHT22;19317;48.226;11.686;2023-04-01T14:51:35;9.10;99.90
32965;DHT22;19317;48.226;11.686;2023-04-01T14:56:44;9.20;99.90
32965;DHT22;19317;48.226;11.686;2023-04-01T15:01:45;9.30;99.90
32965;DHT22;19317;48.226;11.686;2023-04-01T15:11:51;9.50;99.90
32965;DHT22;19317;48.226;11.686;2023-04-01T15:27:41;9.20;99.90
32965;DHT22;19317;48.226;11.686;2023-04-01T15:32:48;9.20;99.90
32965;DHT22;19317;48.226;11.686;2023-04-01T15:47:41;9.30;99.90
32965;DHT22;19317;48.226;11.686;2023-04-01T15:52:54;9.20;99.90
32965;DHT22;19317;48.226;11.686;2023-04-01T16:13:59;9.20;99.90
32965;DHT22;19317;48.226;11.686;2023-04-01T16:24:44;9.40;99.90
32965;DHT22;19317;48.226;11.686;2023-04-01T16:29:47;9.60;99.90
32965;DHT22;19317;48.226;11.686;2023-04-01T16:34:47;9.60;99.90
32965;DHT22;19317;48.226;11.686;2023-04-01T16:50:22;9.60;99.90
32965;DHT22;19317;48.226;11.686;2023-04-01T16:55:16;9.60;99.90
32965;DHT22;19317;48.226;11.686;2023-04-01T17:00:28;9.60;99.90
32965;DHT22;19317;48.226;11.686;2023-04-01T17:05:20;9.60;99.90
32965;DHT22;19317;48.226;11.686;2023-04-01T17:10:31;9.60;99.90
32965;DHT22;19317;48.226;11.686;2023-04-01T17:15:42;9.60;99.90
32965;DHT22;19317;48.226;11.686;2023-04-01T17:51:45;9.50;99.90
32965;DHT22;19317;48.226;11.686;2023-04-01T17:57:03;9.50;99.90
32965;DHT22;19317;48.226;11.686;2023-04-01T18:02:16;9.50;99.90
32965;DHT22;19317;48.226;11.686;2023-04-01T18:07:36;9.50;99.90
32965;DHT22;19317;48.226;11.686;2023-04-01T18:13:00;9.40;99.90
32965;DHT22;19317;48.226;11.686;2023-04-01T18:18:05;9.50;99.90
32965;DHT22;19317;48.226;11.686;2023-04-01T18:23:26;9.50;99.90
32965;DHT22;19317;48.226;11.686;2023-04-01T18:33:18;9.50;99.90
32965;DHT22;19317;48.226;11.686;2023-04-01T18:38:20;9.50;99.90
32965;DHT22;19317;48.226;11.686;2023-04-01T18:43:53;9.50;99.90
32965;DHT22;19317;48.226;11.686;2023-04-01T18:49:01;9.50;99.90
32965;DHT22;19317;48.226;11.686;2023-04-01T18:54:09;9.40;99.90
32965;DHT22;19317;48.226;11.686;2023-04-01T19:04:33;9.30;99.90
32965;DHT22;19317;48.226;11.686;2023-04-01T19:09:52;9.20;99.90
32965;DHT22;19317;48.226;11.686;2023-04-01T19:35:26;9.20;99.90
32965;DHT22;19317;48.226;11.686;2023-04-01T19:51:07;9.10;99.90
32965;DHT22;19317;48.226;11.686;2023-04-01T19:56:19;9.00;99.90
32965;DHT22;19317;48.226;11.686;2023-04-01T20:01:19;8.90;99.90
32965;DHT22;19317;48.226;11.686;2023-04-01T20:21:46;8.70;99.90
32965;DHT22;19317;48.226;11.686;2023-04-01T20:26:41;8.70;99.90
32965;DHT22;19317;48.226;11.686;2023-04-01T20:31:43;8.70;99.90
32965;DHT22;19317;48.226;11.686;2023-04-01T20:36:58;8.60;99.90
32965;DHT22;19317;48.226;11.686;2023-04-01T20:47:44;8.60;99.90
32965;DHT22;19317;48.226;11.686;2023-04-01T20:52:56;8.60;99.90
32965;DHT22;19317;48.226;11.686;2023-04-01T20:58:07;8.60;99.90
32965;DHT22;19317;48.226;11.686;2023-04-01T21:03:18;8.50;99.90
32965;DHT22;19317;48.226;11.686;2023-04-01T21:13:46;8.50;99.90
32965;DHT22;19317;48.226;11.686;2023-04-01T21:29:08;8.40;99.90
32965;DHT22;19317;48.226;11.686;2023-04-01T21:39:55;8.40;99.90
32965;DHT22;19317;48.226;11.686;2023-04-01T22:00:56;8.30;99.90
32965;DHT22;19317;48.226;11.686;2023-04-01T22:05:55;8.30;99.90
32965;DHT22;19317;48.226;11.686;2023-04-01T22:11:22;8.40;99.90
32965;DHT22;19317;48.226;11.686;2023-04-01T22:16:20;8.30;99.90
32965;DHT22;19317;48.226;11.686;2023-04-01T22:21:45;8.40;99.90
32965;DHT22;19317;48.226;11.686;2023-04-01T22:26:59;8.40;99.90
32965;DHT22;19317;48.226;11.686;2023-04-01T22:37:29;8.40;99.90
32965;DHT22;19317;48.226;11.686;2023-04-01T22:47:37;8.50;99.90
32965;DHT22;19317;48.226;11.686;2023-04-01T22:52:45;8.30;99.90
32965;DHT22;19317;48.226;11.686;2023-04-01T22:58:04;8.30;99.90
32965;DHT22;19317;48.226;11.686;2023-04-01T23:12:52;8.20;99.90
32965;DHT22;19317;48.226;11.686;2023-04-01T23:33:10;8.10;99.90
32965;DHT22;19317;48.226;11.686;2023-04-01T23:38:02;8.10;99.90
32965;DHT22;19317;48.226;11.686;2023-04-01T23:42:52;8.10;99.90
32965;DHT22;19317;48.226;11.686;2023-04-01T23:47:43;8.10;99.90
32965;DHT22;19317;48.226;11.686;2023-04-01T23:52:40;8.00;99.90
32965;DHT22;19317;48.226;11.686;2023-04-01T23:57:35;8.00;99.90
